createdAt,value
2022-11-06T00:01:11.352Z,10.82
2022-11-06T00:03:39.242Z,14.93
2022-11-06T00:06:27.825Z,14.27
2022-11-06T00:08:55.249Z,10.97
2022-11-06T00:11:22.892Z,15.40
2022-11-06T00:13:54.809Z,13.60
2022-11-06T00:16:24.268Z,13.32
2022-11-06T00:18:51.632Z,15.93
2022-11-06T00:21:24.137Z,12.68
2022-11-06T00:23:51.677Z,10.95
2022-11-06T00:26:20.538Z,9.77
2022-11-06T00:28:48.202Z,12.20
2022-11-06T00:31:16.817Z,13.10
2022-11-06T00:33:44.403Z,12.32
2022-11-06T00:36:13.649Z,10.35
2022-11-06T00:38:41.234Z,20.50
2022-11-06T00:41:09.989Z,15.70
2022-11-06T00:43:37.904Z,13.70
2022-11-06T00:46:06.888Z,13.18
2022-11-06T00:48:34.782Z,14.70
2022-11-06T00:51:03.202Z,13.60
2022-11-06T00:53:30.658Z,13.90
2022-11-06T00:56:05.058Z,11.15
2022-11-06T00:58:32.414Z,15.48
2022-11-06T01:01:12.849Z,11.98
2022-11-06T01:03:41.015Z,15.98
2022-11-06T01:06:09.615Z,15.82
2022-11-06T01:08:37.299Z,14.38
2022-11-06T01:11:13.860Z,13.43
2022-11-06T01:13:41.329Z,12.23
2022-11-06T01:16:10.082Z,13.35
2022-11-06T01:18:38.580Z,11.20
2022-11-06T01:21:11.328Z,12.20
2022-11-06T01:23:41.275Z,10.95
2022-11-06T01:26:09.249Z,10.73
2022-11-06T01:28:36.556Z,12.77
2022-11-06T01:31:04.853Z,13.93
2022-11-06T01:33:32.542Z,13.13
2022-11-06T01:35:59.931Z,17.33
2022-11-06T01:38:30.291Z,11.68
2022-11-06T01:41:00.914Z,14.60
2022-11-06T01:43:49.007Z,11.13
2022-11-06T01:46:19.492Z,16.40
2022-11-06T01:48:49.614Z,17.77
2022-11-06T01:51:16.954Z,15.00
2022-11-06T01:53:44.522Z,12.80
2022-11-06T01:56:12.686Z,12.88
2022-11-06T01:58:41.015Z,17.35
2022-11-06T02:01:13.312Z,13.52
2022-11-06T02:03:42.722Z,13.48
2022-11-06T02:06:10.151Z,12.60
2022-11-06T02:08:37.358Z,15.85
2022-11-06T02:11:04.699Z,12.40
2022-11-06T02:13:58.218Z,17.10
2022-11-06T02:16:35.345Z,16.60
2022-11-06T02:19:21.647Z,11.52
2022-11-06T02:22:07.748Z,15.38
2022-11-06T02:24:43.222Z,17.23
2022-11-06T02:27:18.337Z,12.15
2022-11-06T02:29:50.736Z,15.50
2022-11-06T02:32:21.063Z,17.08
2022-11-06T02:34:49.248Z,11.07
2022-11-06T02:37:18.734Z,18.33
2022-11-06T02:39:50.678Z,14.18
2022-11-06T02:42:19.160Z,14.57
2022-11-06T02:44:48.769Z,15.32
2022-11-06T02:49:45.998Z,14.25
2022-11-06T02:52:24.070Z,11.40
2022-11-06T02:54:57.979Z,16.85
2022-11-06T02:57:26.247Z,21.48
2022-11-06T02:59:58.645Z,13.73
2022-11-06T03:02:28.616Z,17.17
2022-11-06T03:04:58.833Z,13.02
2022-11-06T03:07:35.864Z,16.92
2022-11-06T03:10:04.031Z,19.15
2022-11-06T03:12:33.429Z,18.77
2022-11-06T03:15:04.015Z,19.38
2022-11-06T03:17:38.642Z,14.13
2022-11-06T03:20:15.194Z,17.17
2022-11-06T03:22:51.269Z,15.95
2022-11-06T03:25:24.565Z,17.60
2022-11-06T03:28:04.177Z,18.73
2022-11-06T03:33:25.634Z,18.50
2022-11-06T03:35:59.909Z,17.20
2022-11-06T03:38:30.308Z,17.55
2022-11-06T03:41:03.263Z,19.55
2022-11-06T03:43:33.210Z,20.15
2022-11-06T03:46:02.693Z,20.58
2022-11-06T03:48:34.986Z,22.95
2022-11-06T03:51:21.485Z,21.00
2022-11-06T03:53:48.748Z,20.60
2022-11-06T03:56:36.245Z,16.20
2022-11-06T03:59:04.920Z,19.77
2022-11-06T04:01:34.322Z,17.98
2022-11-06T04:04:12.658Z,21.35
2022-11-06T04:07:00.496Z,21.40
2022-11-06T04:09:59.200Z,16.00
2022-11-06T04:12:50.867Z,19.57
2022-11-06T04:15:19.258Z,20.85
2022-11-06T04:17:46.569Z,21.60
2022-11-06T04:20:36.289Z,21.80
2022-11-06T04:23:13.192Z,20.27
2022-11-06T04:26:14.814Z,20.70
2022-11-06T04:28:42.068Z,24.17
2022-11-06T04:31:14.115Z,19.20
2022-11-06T04:34:05.762Z,22.55
2022-11-06T04:36:37.601Z,26.63
2022-11-06T04:39:25.513Z,20.75
2022-11-06T04:42:17.321Z,21.25
2022-11-06T04:44:52.936Z,19.02
2022-11-06T04:47:21.727Z,20.17
2022-11-06T04:49:50.167Z,21.30
2022-11-06T04:52:19.768Z,23.50
2022-11-06T04:57:14.307Z,24.17
2022-11-06T04:59:41.634Z,27.45
2022-11-06T05:02:09.056Z,23.52
2022-11-06T05:04:36.334Z,23.52
2022-11-06T05:07:03.606Z,23.70
2022-11-06T05:09:30.873Z,21.08
2022-11-06T05:11:58.323Z,25.33
2022-11-06T05:14:25.821Z,28.90
2022-11-06T05:16:53.097Z,20.95
2022-11-06T05:19:21.196Z,24.25
2022-11-06T05:22:18.177Z,24.98
2022-11-06T05:24:45.433Z,24.15
2022-11-06T05:27:12.712Z,24.95
2022-11-06T05:29:40.002Z,23.25
2022-11-06T05:32:07.309Z,26.88
2022-11-06T05:34:34.572Z,24.33
2022-11-06T05:37:01.835Z,26.25
2022-11-06T05:39:29.115Z,22.90
2022-11-06T05:41:56.404Z,26.17
2022-11-06T05:44:23.729Z,26.35
2022-11-06T05:46:51.074Z,21.05
2022-11-06T05:49:18.988Z,21.45
2022-11-06T05:51:46.447Z,19.55
2022-11-06T05:54:16.097Z,17.10
2022-11-06T05:59:10.611Z,18.95
2022-11-06T06:01:38.329Z,17.90
2022-11-06T06:04:05.839Z,21.30
2022-11-06T06:06:33.397Z,20.00
2022-11-06T06:09:00.674Z,14.40
2022-11-06T06:11:27.988Z,15.48
2022-11-06T06:13:55.429Z,12.02
2022-11-06T06:16:22.838Z,15.02
2022-11-06T06:18:55.006Z,13.65
2022-11-06T06:21:22.439Z,12.88
2022-11-06T06:23:49.981Z,14.50
2022-11-06T06:26:20.424Z,12.02
2022-11-06T06:28:49.398Z,14.80
2022-11-06T06:31:19.279Z,11.40
2022-11-06T06:33:46.699Z,16.00
2022-11-06T06:36:14.139Z,12.57
2022-11-06T06:38:41.426Z,11.23
2022-11-06T06:41:09.321Z,15.07
2022-11-06T06:43:36.794Z,15.05
2022-11-06T06:46:05.711Z,14.35
2022-11-06T06:48:33.294Z,10.65
2022-11-06T06:51:01.621Z,9.07
2022-11-06T06:53:29.098Z,8.90
2022-11-06T06:55:58.944Z,8.27
2022-11-06T06:58:26.267Z,12.15
2022-11-06T07:00:56.693Z,10.20
2022-11-06T07:03:24.116Z,8.82
2022-11-06T07:05:51.557Z,9.95
2022-11-06T07:08:21.411Z,10.93
2022-11-06T07:10:48.870Z,12.35
2022-11-06T07:13:16.431Z,12.52
2022-11-06T07:15:43.924Z,9.88
2022-11-06T07:18:11.528Z,9.32
2022-11-06T07:20:39.762Z,12.18
2022-11-06T07:23:08.200Z,12.98
2022-11-06T07:25:35.974Z,9.63
2022-11-06T07:28:03.800Z,12.43
2022-11-06T07:30:31.677Z,9.48
2022-11-06T07:33:00.989Z,10.82
2022-11-06T07:35:28.762Z,12.35
2022-11-06T07:37:56.245Z,9.10
2022-11-06T07:40:23.692Z,11.75
2022-11-06T07:42:51.163Z,12.50
2022-11-06T07:45:19.812Z,13.68
2022-11-06T07:47:47.116Z,18.10
2022-11-06T07:50:14.506Z,10.75
2022-11-06T07:52:41.895Z,11.65
2022-11-06T07:55:09.513Z,14.52
2022-11-06T07:57:37.743Z,14.05
2022-11-06T08:00:05.952Z,9.80
2022-11-06T08:02:40.263Z,9.32
2022-11-06T08:05:11.036Z,13.88
2022-11-06T08:07:38.385Z,11.63
2022-11-06T08:10:05.930Z,10.27
2022-11-06T08:12:33.282Z,12.88
2022-11-06T08:15:00.816Z,13.88
2022-11-06T08:17:30.313Z,10.55
2022-11-06T08:19:57.599Z,12.73
2022-11-06T08:22:24.946Z,10.15
2022-11-06T08:24:52.417Z,9.82
2022-11-06T08:27:19.775Z,9.25
2022-11-06T08:30:18.931Z,13.82
2022-11-06T08:32:46.495Z,9.32
2022-11-06T08:35:13.767Z,9.52
2022-11-06T08:37:45.852Z,8.70
2022-11-06T08:40:13.317Z,7.13
2022-11-06T08:42:40.824Z,10.43
2022-11-06T08:45:11.499Z,10.20
2022-11-06T08:47:38.943Z,12.63
2022-11-06T08:50:06.548Z,12.10
2022-11-06T08:52:34.449Z,10.45
2022-11-06T08:55:02.210Z,8.80
2022-11-06T08:57:32.783Z,7.43
2022-11-06T09:00:00.339Z,8.98
2022-11-06T09:02:35.332Z,9.43
2022-11-06T09:05:04.450Z,10.35
2022-11-06T09:07:31.831Z,10.70
2022-11-06T09:09:59.395Z,9.43
2022-11-06T09:12:28.971Z,13.75
2022-11-06T09:14:57.230Z,9.57
2022-11-06T09:17:30.587Z,12.23
2022-11-06T09:20:00.470Z,12.10
2022-11-06T09:22:30.103Z,13.48
2022-11-06T09:25:03.630Z,9.85
2022-11-06T09:27:31.794Z,11.57
2022-11-06T09:29:59.273Z,12.82
2022-11-06T09:32:26.720Z,10.93
2022-11-06T09:34:54.311Z,10.68
2022-11-06T09:37:21.855Z,12.93
2022-11-06T09:39:49.338Z,13.00
2022-11-06T09:42:33.652Z,10.13
2022-11-06T09:45:09.170Z,10.10
2022-11-06T09:47:38.688Z,7.45
2022-11-06T09:50:07.744Z,10.20
2022-11-06T09:52:41.750Z,11.02
2022-11-06T09:55:15.307Z,11.90
2022-11-06T09:57:48.622Z,12.98
2022-11-06T10:00:18.559Z,16.73
2022-11-06T10:02:50.857Z,9.70
2022-11-06T10:05:27.073Z,15.70
2022-11-06T10:08:00.325Z,9.60
2022-11-06T10:10:43.000Z,10.15
2022-11-06T10:13:34.417Z,10.65
2022-11-06T10:16:05.156Z,9.82
2022-11-06T10:21:40.397Z,7.93
2022-11-06T10:24:30.955Z,7.63
2022-11-06T10:26:58.858Z,9.93
2022-11-06T10:29:41.314Z,14.05
2022-11-06T10:32:26.295Z,7.68
2022-11-06T10:35:09.260Z,8.85
2022-11-06T10:37:41.400Z,10.50
2022-11-06T10:40:15.215Z,6.68
2022-11-06T10:42:46.053Z,6.13
2022-11-06T10:45:17.622Z,13.32
2022-11-06T10:48:06.607Z,6.78
2022-11-06T10:50:37.035Z,7.38
2022-11-06T10:53:08.884Z,7.07
2022-11-06T10:55:42.172Z,10.45
2022-11-06T10:58:11.375Z,6.55
2022-11-06T11:00:42.586Z,8.95
2022-11-06T11:03:29.975Z,6.28
2022-11-06T11:06:01.235Z,7.05
2022-11-06T11:08:31.643Z,9.02
2022-11-06T11:11:06.691Z,8.70
2022-11-06T11:13:34.861Z,6.07
2022-11-06T11:16:03.826Z,7.15
2022-11-06T11:18:37.009Z,10.35
2022-11-06T11:21:19.712Z,7.22
2022-11-06T11:23:47.670Z,8.00
2022-11-06T11:26:14.971Z,7.00
2022-11-06T11:28:42.299Z,6.88
2022-11-06T11:31:14.096Z,9.65
2022-11-06T11:33:42.847Z,7.40
2022-11-06T11:36:14.548Z,8.03
2022-11-06T11:38:44.268Z,7.15
2022-11-06T11:41:20.664Z,9.18
2022-11-06T11:43:58.949Z,4.57
2022-11-06T11:46:29.963Z,7.75
2022-11-06T11:48:58.439Z,9.30
2022-11-06T11:51:39.602Z,8.60
2022-11-06T11:54:12.900Z,9.50
2022-11-06T11:57:04.222Z,10.77
2022-11-06T11:59:55.179Z,8.55
2022-11-06T12:02:28.093Z,11.75
2022-11-06T12:05:37.075Z,8.60
2022-11-06T12:08:04.966Z,10.90
2022-11-06T12:10:40.406Z,6.00
2022-11-06T12:13:15.146Z,6.70
2022-11-06T12:16:01.436Z,8.88
2022-11-06T12:18:39.078Z,10.07
2022-11-06T12:21:13.717Z,7.43
2022-11-06T12:23:43.476Z,7.47
2022-11-06T12:26:33.650Z,8.13
2022-11-06T12:29:14.505Z,8.95
2022-11-06T12:32:00.518Z,8.23
2022-11-06T12:34:35.899Z,8.30
2022-11-06T12:37:13.850Z,6.50
2022-11-06T12:39:47.478Z,16.02
2022-11-06T12:42:16.337Z,13.65
2022-11-06T12:44:43.803Z,5.35
2022-11-06T12:47:14.325Z,8.05
2022-11-06T12:50:00.742Z,7.45
2022-11-06T12:52:51.769Z,8.43
2022-11-06T12:55:36.250Z,5.82
2022-11-06T12:58:13.171Z,11.35
2022-11-06T13:00:40.692Z,12.52
2022-11-06T13:03:18.092Z,5.63
2022-11-06T13:05:49.258Z,11.88
2022-11-06T13:08:19.476Z,6.43
2022-11-06T13:10:49.732Z,8.88
2022-11-06T13:13:19.806Z,8.15
2022-11-06T13:16:02.509Z,7.60
2022-11-06T13:18:32.040Z,7.90
2022-11-06T13:23:36.409Z,9.70
2022-11-06T13:26:07.449Z,8.77
2022-11-06T13:28:43.639Z,8.02
2022-11-06T13:31:14.876Z,8.80
2022-11-06T13:33:44.876Z,5.72
2022-11-06T13:36:12.430Z,9.93
2022-11-06T13:38:49.218Z,5.85
2022-11-06T13:41:22.171Z,8.45
2022-11-06T13:44:03.669Z,6.95
2022-11-06T13:46:31.204Z,5.50
2022-11-06T13:49:21.102Z,8.52
2022-11-06T13:51:57.250Z,8.60
2022-11-06T13:54:24.697Z,9.68
2022-11-06T13:57:11.343Z,9.02
2022-11-06T13:59:44.672Z,6.70
2022-11-06T14:02:18.255Z,5.68
2022-11-06T14:04:54.833Z,7.72
2022-11-06T14:07:23.585Z,11.98
2022-11-06T14:09:52.950Z,8.10
2022-11-06T14:12:21.642Z,11.27
2022-11-06T14:14:49.348Z,6.33
2022-11-06T14:17:19.698Z,10.95
2022-11-06T14:19:50.897Z,7.85
2022-11-06T14:22:32.121Z,9.00
2022-11-06T14:25:23.832Z,6.45
2022-11-06T14:27:51.122Z,8.40
2022-11-06T14:30:57.592Z,7.43
2022-11-06T14:33:36.501Z,10.45
2022-11-06T14:36:13.539Z,5.70
2022-11-06T14:38:44.098Z,9.13
2022-11-06T14:41:30.396Z,7.93
2022-11-06T14:43:58.653Z,10.82
2022-11-06T14:46:26.115Z,10.18
2022-11-06T14:48:55.159Z,9.18
2022-11-06T14:51:26.502Z,9.27
2022-11-06T14:53:56.052Z,6.97
2022-11-06T14:56:28.046Z,8.43
2022-11-06T14:58:57.144Z,10.50
2022-11-06T15:01:26.942Z,12.45
2022-11-06T15:04:05.654Z,13.50
2022-11-06T15:06:33.105Z,13.53
2022-11-06T15:09:01.983Z,8.32
2022-11-06T15:11:32.131Z,9.25
2022-11-06T15:14:03.220Z,10.35
2022-11-06T15:16:37.732Z,9.07
2022-11-06T15:19:06.628Z,7.22
2022-11-06T15:21:38.271Z,8.57
2022-11-06T15:24:25.709Z,5.88
2022-11-06T15:26:55.279Z,10.30
2022-11-06T15:31:51.971Z,7.68
2022-11-06T15:34:29.461Z,7.18
2022-11-06T15:37:18.012Z,9.85
2022-11-06T15:39:48.564Z,6.35
2022-11-06T15:42:26.516Z,8.63
2022-11-06T15:45:06.672Z,8.45
2022-11-06T15:47:36.642Z,10.27
2022-11-06T15:50:16.943Z,13.18
2022-11-06T15:52:47.546Z,8.68
2022-11-06T15:55:32.554Z,10.43
2022-11-06T15:58:30.634Z,11.93
2022-11-06T16:00:59.214Z,8.90
2022-11-06T16:03:28.109Z,9.48
2022-11-06T16:05:57.428Z,9.25
2022-11-06T16:08:25.787Z,7.97
2022-11-06T16:11:07.002Z,8.63
2022-11-06T16:13:41.276Z,9.40
2022-11-06T16:16:28.704Z,10.93
2022-11-06T16:19:01.293Z,7.55
2022-11-06T16:21:32.619Z,8.40
2022-11-06T16:24:01.665Z,6.38
2022-11-06T16:26:36.720Z,9.00
2022-11-06T16:29:09.493Z,7.88
2022-11-06T16:31:37.484Z,9.13
2022-11-06T16:34:06.214Z,6.30
2022-11-06T16:36:56.757Z,7.63
2022-11-06T16:39:40.313Z,8.50
2022-11-06T16:42:21.709Z,5.97
2022-11-06T16:44:54.190Z,8.18
2022-11-06T16:47:22.952Z,7.28
2022-11-06T16:50:02.701Z,6.88
2022-11-06T16:52:40.250Z,10.43
2022-11-06T16:55:22.343Z,12.77
2022-11-06T16:57:54.981Z,7.38
2022-11-06T17:00:34.027Z,7.75
2022-11-06T17:03:04.591Z,8.75
2022-11-06T17:05:51.727Z,6.80
2022-11-06T17:08:21.477Z,8.25
2022-11-06T17:10:49.826Z,10.75
2022-11-06T17:13:24.356Z,8.38
2022-11-06T17:15:58.974Z,9.13
2022-11-06T17:18:32.336Z,9.57
2022-11-06T17:21:23.235Z,8.88
2022-11-06T17:24:07.671Z,8.52
2022-11-06T17:26:53.098Z,9.45
2022-11-06T17:29:22.332Z,9.98
2022-11-06T17:31:53.583Z,9.65
2022-11-06T17:34:21.002Z,11.57
2022-11-06T17:36:48.577Z,8.57
2022-11-06T17:39:21.683Z,7.65
2022-11-06T17:41:49.290Z,9.60
2022-11-06T17:44:19.757Z,8.07
2022-11-06T17:46:48.035Z,9.50
2022-11-06T17:49:18.455Z,12.38
2022-11-06T17:51:52.968Z,10.38
2022-11-06T17:54:21.987Z,10.50
2022-11-06T17:56:51.601Z,12.35
2022-11-06T18:01:50.800Z,10.45
2022-11-06T18:04:18.626Z,8.43
2022-11-06T18:06:57.504Z,8.77
2022-11-06T18:09:29.864Z,9.60
2022-11-06T18:12:00.251Z,10.93
2022-11-06T18:14:30.524Z,12.50
2022-11-06T18:16:58.135Z,10.25
2022-11-06T18:19:26.358Z,19.98
2022-11-06T18:21:57.729Z,9.82
2022-11-06T18:24:27.566Z,10.95
2022-11-06T18:26:54.981Z,9.98
2022-11-06T18:29:25.451Z,21.95
2022-11-06T18:31:52.855Z,12.70
2022-11-06T18:34:21.278Z,15.70
2022-11-06T18:36:50.344Z,11.85
2022-11-06T18:39:18.179Z,14.10
2022-11-06T18:41:45.616Z,17.60
2022-11-06T18:47:08.260Z,24.70
2022-11-06T18:49:36.277Z,44.15
2022-11-06T18:54:47.999Z,30.92
2022-11-06T18:57:15.481Z,23.58
2022-11-06T18:59:42.832Z,38.63
2022-11-06T19:02:10.710Z,26.95
2022-11-06T19:07:40.879Z,20.20
2022-11-06T19:10:11.853Z,22.33
2022-11-06T19:12:39.278Z,24.13
2022-11-06T19:15:06.989Z,24.00
2022-11-06T19:17:34.665Z,24.00
2022-11-06T19:20:02.248Z,21.23
2022-11-06T19:22:30.996Z,22.33
2022-11-06T19:24:58.463Z,22.43
2022-11-06T19:27:25.978Z,22.38
2022-11-06T19:29:56.800Z,20.20
2022-11-06T19:32:24.242Z,21.48
2022-11-06T19:34:51.520Z,22.60
2022-11-06T19:37:19.001Z,21.83
2022-11-06T19:39:46.526Z,20.75
2022-11-06T19:42:19.217Z,23.70
2022-11-06T19:44:46.732Z,19.45
2022-11-06T19:47:21.487Z,21.50
2022-11-06T19:49:50.863Z,22.55
2022-11-06T19:52:42.634Z,19.08
2022-11-06T19:55:26.031Z,21.40
2022-11-06T19:58:03.581Z,23.50
2022-11-06T20:00:35.885Z,22.95
2022-11-06T20:03:03.431Z,25.48
2022-11-06T20:05:30.865Z,22.98
2022-11-06T20:07:58.225Z,23.45
2022-11-06T20:10:28.489Z,27.27
2022-11-06T20:12:55.994Z,23.13
2022-11-06T20:15:24.234Z,24.95
2022-11-06T20:17:55.972Z,23.33
2022-11-06T20:20:23.377Z,23.27
2022-11-06T20:22:51.281Z,27.75
2022-11-06T20:25:21.767Z,22.08
2022-11-06T20:27:49.681Z,26.15
2022-11-06T20:30:17.373Z,21.85
2022-11-06T20:32:45.339Z,23.15
2022-11-06T20:35:17.453Z,23.63
2022-11-06T20:37:45.008Z,23.17
2022-11-06T20:40:12.718Z,25.63
2022-11-06T20:42:43.379Z,24.20
2022-11-06T20:45:13.902Z,26.05
2022-11-06T20:47:41.454Z,22.77
2022-11-06T20:50:08.892Z,22.98
2022-11-06T20:52:36.237Z,26.15
2022-11-06T20:55:03.798Z,30.23
2022-11-06T20:57:31.489Z,27.08
2022-11-06T20:59:59.129Z,25.35
2022-11-06T21:02:29.826Z,30.25
2022-11-06T21:04:57.366Z,23.90
2022-11-06T21:07:24.767Z,25.27
2022-11-06T21:09:52.134Z,27.05
2022-11-06T21:12:22.234Z,26.02
2022-11-06T21:14:49.848Z,23.65
2022-11-06T21:17:20.447Z,26.02
2022-11-06T21:19:50.182Z,24.25
2022-11-06T21:24:47.374Z,24.80
2022-11-06T21:27:16.925Z,23.02
2022-11-06T21:29:44.436Z,26.35
2022-11-06T21:32:12.172Z,24.42
2022-11-06T21:34:39.773Z,24.88
2022-11-06T21:37:07.183Z,33.60
2022-11-06T21:39:36.426Z,19.08
2022-11-06T21:44:34.432Z,22.00
2022-11-06T21:47:01.808Z,17.88
2022-11-06T21:49:29.624Z,24.40
2022-11-06T21:52:16.961Z,19.67
2022-11-06T21:55:06.268Z,24.42
2022-11-06T21:57:33.842Z,25.75
2022-11-06T22:00:04.062Z,20.23
2022-11-06T22:02:39.361Z,18.95
2022-11-06T22:05:07.090Z,18.75
2022-11-06T22:07:34.505Z,18.55
2022-11-06T22:10:01.974Z,20.95
2022-11-06T22:12:29.763Z,15.48
2022-11-06T22:14:57.074Z,17.98
2022-11-06T22:17:26.922Z,20.25
2022-11-06T22:19:54.433Z,17.17
2022-11-06T22:22:21.692Z,19.08
2022-11-06T22:24:49.145Z,18.73
2022-11-06T22:27:16.510Z,22.05
2022-11-06T22:29:46.347Z,20.73
2022-11-06T22:32:15.073Z,23.27
2022-11-06T22:34:42.422Z,16.80
2022-11-06T22:37:09.818Z,22.83
2022-11-06T22:39:37.492Z,19.67
2022-11-06T22:42:05.023Z,19.38
2022-11-06T22:44:33.579Z,20.92
2022-11-06T22:47:01.038Z,19.63
2022-11-06T22:49:28.588Z,20.73
2022-11-06T22:51:55.928Z,25.58
2022-11-06T22:54:23.483Z,20.30
2022-11-06T22:56:50.864Z,22.95
2022-11-06T22:59:18.148Z,22.33
2022-11-06T23:01:45.665Z,18.40
2022-11-06T23:04:17.456Z,21.83
2022-11-06T23:06:45.409Z,25.13
2022-11-06T23:09:16.204Z,19.70
2022-11-06T23:11:45.627Z,21.40
2022-11-06T23:14:13.138Z,24.95
2022-11-06T23:17:01.122Z,21.35
2022-11-06T23:19:30.183Z,17.98
2022-11-06T23:22:18.434Z,16.08
2022-11-06T23:24:45.910Z,18.83
2022-11-06T23:27:13.366Z,20.50
2022-11-06T23:29:40.789Z,20.25
2022-11-06T23:32:08.825Z,17.50
2022-11-06T23:34:36.172Z,20.63
2022-11-06T23:37:03.548Z,16.50
2022-11-06T23:39:33.231Z,16.77
2022-11-06T23:42:00.644Z,16.75
2022-11-06T23:44:46.510Z,14.35
2022-11-06T23:47:13.886Z,17.70
2022-11-06T23:49:41.162Z,13.25
2022-11-06T23:52:10.678Z,16.63
2022-11-06T23:54:38.097Z,18.17
2022-11-06T23:57:05.845Z,14.90
2022-11-06T23:59:33.127Z,14.02
